createdAt,value
2022-12-13T00:00:24.324Z,12.80
2022-12-13T00:03:14.381Z,12.57
2022-12-13T00:06:06.804Z,11.17
2022-12-13T00:08:58.532Z,15.40
2022-12-13T00:11:48.218Z,12.33
2022-12-13T00:14:40.504Z,11.20
2022-12-13T00:17:30.482Z,13.70
2022-12-13T00:20:19.707Z,12.70
2022-12-13T00:23:09.620Z,13.47
2022-12-13T00:26:06.046Z,12.77
2022-12-13T00:28:57.015Z,12.90
2022-12-13T00:32:00.072Z,13.90
2022-12-13T00:34:50.938Z,13.73
2022-12-13T00:37:40.607Z,13.57
2022-12-13T00:40:31.054Z,13.93
2022-12-13T00:43:22.569Z,14.83
2022-12-13T00:46:15.942Z,13.13
2022-12-13T00:49:06.961Z,14.67
2022-12-13T00:51:57.156Z,14.10
2022-12-13T00:54:46.823Z,13.70
2022-12-13T00:57:38.115Z,13.20
2022-12-13T01:00:29.659Z,14.17
2022-12-13T01:03:25.804Z,14.17
2022-12-13T01:06:21.442Z,12.87
2022-12-13T01:09:20.381Z,13.53
2022-12-13T01:12:11.548Z,12.20
2022-12-13T01:15:03.723Z,14.20
2022-12-13T01:17:54.774Z,12.37
2022-12-13T01:20:46.975Z,11.80
2022-12-13T01:23:37.182Z,11.00
2022-12-13T01:26:27.423Z,12.27
2022-12-13T01:29:17.778Z,10.90
2022-12-13T01:32:07.969Z,12.17
2022-12-13T01:34:59.361Z,11.60
2022-12-13T01:37:49.466Z,11.90
2022-12-13T01:40:46.049Z,11.23
2022-12-13T01:43:55.146Z,11.80
2022-12-13T01:46:45.241Z,13.30
2022-12-13T01:49:36.244Z,12.63
2022-12-13T01:52:30.319Z,14.20
2022-12-13T01:55:22.039Z,13.20
2022-12-13T01:58:14.274Z,15.03
2022-12-13T02:01:05.084Z,14.67
2022-12-13T02:03:57.610Z,13.37
2022-12-13T02:06:49.407Z,14.13
2022-12-13T02:09:40.956Z,11.87
2022-12-13T02:12:38.023Z,11.97
2022-12-13T02:15:49.700Z,12.97
2022-12-13T02:18:57.441Z,9.00
2022-12-13T02:22:06.868Z,12.33
2022-12-13T02:25:28.669Z,12.63
2022-12-13T02:28:39.435Z,12.20
2022-12-13T02:31:39.556Z,12.47
2022-12-13T02:34:36.951Z,12.70
2022-12-13T02:37:34.107Z,13.53
2022-12-13T02:40:29.410Z,11.90
2022-12-13T02:43:25.702Z,13.27
2022-12-13T02:46:27.467Z,13.90
2022-12-13T02:49:19.437Z,14.50
2022-12-13T02:52:12.712Z,15.50
2022-12-13T02:55:11.090Z,14.63
2022-12-13T02:58:02.802Z,14.50
2022-12-13T03:01:28.460Z,14.37
2022-12-13T03:04:34.200Z,16.67
2022-12-13T03:07:30.403Z,15.83
2022-12-13T03:10:32.783Z,18.13
2022-12-13T03:13:47.745Z,15.23
2022-12-13T03:16:43.603Z,15.83
2022-12-13T03:19:38.075Z,17.20
2022-12-13T03:22:29.848Z,14.97
2022-12-13T03:25:31.895Z,14.83
2022-12-13T03:28:25.852Z,16.40
2022-12-13T03:31:20.143Z,14.60
2022-12-13T03:34:10.845Z,14.60
2022-12-13T03:37:02.233Z,15.33
2022-12-13T03:39:54.910Z,15.93
2022-12-13T03:42:47.275Z,16.37
2022-12-13T03:45:37.885Z,15.20
2022-12-13T03:48:30.751Z,14.17
2022-12-13T03:51:20.315Z,14.70
2022-12-13T03:54:13.483Z,14.87
2022-12-13T03:57:07.502Z,15.63
2022-12-13T03:59:59.245Z,13.50
2022-12-13T04:02:50.360Z,13.90
2022-12-13T04:05:49.244Z,15.83
2022-12-13T04:08:41.200Z,13.93
2022-12-13T04:11:50.177Z,14.90
2022-12-13T04:14:43.676Z,14.63
2022-12-13T04:17:33.471Z,14.80
2022-12-13T04:20:23.624Z,14.60
2022-12-13T04:23:14.187Z,13.20
2022-12-13T04:26:07.346Z,14.23
2022-12-13T04:28:59.260Z,13.80
2022-12-13T04:31:49.341Z,14.53
2022-12-13T04:34:39.244Z,18.60
2022-12-13T04:37:32.530Z,13.00
2022-12-13T04:40:23.749Z,15.73
2022-12-13T04:43:14.507Z,15.17
2022-12-13T04:46:08.195Z,15.03
2022-12-13T04:49:00.244Z,13.40
2022-12-13T04:51:50.384Z,14.53
2022-12-13T04:54:41.679Z,14.70
2022-12-13T04:57:31.984Z,16.70
2022-12-13T05:00:24.112Z,13.83
2022-12-13T05:03:18.452Z,13.40
2022-12-13T05:09:14.078Z,13.47
2022-12-13T05:12:04.474Z,12.30
2022-12-13T05:15:13.865Z,11.80
2022-12-13T05:18:10.089Z,12.00
2022-12-13T05:21:11.951Z,13.83
2022-12-13T05:24:02.204Z,14.50
2022-12-13T05:26:53.551Z,13.57
2022-12-13T05:29:44.419Z,14.67
2022-12-13T05:32:43.733Z,12.33
2022-12-13T05:35:37.581Z,13.80
2022-12-13T05:38:33.886Z,14.60
2022-12-13T05:41:27.904Z,13.33
2022-12-13T05:44:19.016Z,13.90
2022-12-13T05:47:10.367Z,12.60
2022-12-13T05:50:01.658Z,12.60
2022-12-13T05:52:51.569Z,12.80
2022-12-13T05:55:44.515Z,12.83
2022-12-13T05:58:35.764Z,13.33
2022-12-13T06:01:28.459Z,14.13
2022-12-13T06:04:23.130Z,13.93
2022-12-13T06:07:13.839Z,13.03
2022-12-13T06:10:10.467Z,12.70
2022-12-13T06:13:05.471Z,13.13
2022-12-13T06:16:23.707Z,13.13
2022-12-13T06:19:17.530Z,12.97
2022-12-13T06:22:07.487Z,13.37
2022-12-13T06:24:59.241Z,12.90
2022-12-13T06:27:49.495Z,14.10
2022-12-13T06:30:44.422Z,13.83
2022-12-13T06:33:37.045Z,15.83
2022-12-13T06:36:27.837Z,12.67
2022-12-13T06:39:21.325Z,13.73
2022-12-13T06:42:21.669Z,17.87
2022-12-13T06:45:12.638Z,14.50
2022-12-13T06:48:03.658Z,15.43
2022-12-13T06:50:57.778Z,16.50
2022-12-13T06:53:53.394Z,17.57
2022-12-13T06:56:44.716Z,14.87
2022-12-13T06:59:34.908Z,16.97
2022-12-13T07:02:26.104Z,16.23
2022-12-13T07:05:20.197Z,15.90
2022-12-13T07:08:11.562Z,14.90
2022-12-13T07:11:04.357Z,18.63
2022-12-13T07:13:54.075Z,16.70
2022-12-13T07:16:47.453Z,15.37
2022-12-13T07:19:40.489Z,14.80
2022-12-13T07:22:34.618Z,17.10
2022-12-13T07:25:26.512Z,16.07
2022-12-13T07:28:20.088Z,16.90
2022-12-13T07:31:11.727Z,15.03
2022-12-13T07:34:02.665Z,19.47
2022-12-13T08:54:14.404Z,19.30
2022-12-13T08:57:21.503Z,18.20
2022-12-13T09:00:15.603Z,19.83
2022-12-13T09:24:54.140Z,17.70
2022-12-13T09:27:53.519Z,19.93
2022-12-13T09:30:43.918Z,20.07
2022-12-13T09:33:41.430Z,17.00
2022-12-13T09:36:32.702Z,17.87
2022-12-13T09:39:24.513Z,19.10
2022-12-13T09:42:30.730Z,19.50
2022-12-13T09:45:31.609Z,19.17
2022-12-13T09:48:27.801Z,18.90
2022-12-13T09:51:41.156Z,16.70
2022-12-13T09:54:36.554Z,16.93
2022-12-13T10:10:08.813Z,18.67
2022-12-13T10:13:12.562Z,16.70
2022-12-13T10:16:11.780Z,17.10
2022-12-13T10:19:11.297Z,15.13
2022-12-13T10:22:23.454Z,17.27
2022-12-13T10:25:15.282Z,16.67
2022-12-13T10:28:07.977Z,16.63
2022-12-13T10:31:02.323Z,18.03
2022-12-13T10:33:57.105Z,18.97
2022-12-13T10:36:49.536Z,17.43
2022-12-13T10:39:41.204Z,18.17
2022-12-13T10:42:34.198Z,16.50
2022-12-13T10:45:26.006Z,15.60
2022-12-13T10:48:25.295Z,15.73
2022-12-13T10:51:17.936Z,15.53
2022-12-13T10:54:14.157Z,16.07
2022-12-13T10:57:13.467Z,13.57
2022-12-13T11:00:06.337Z,14.37
2022-12-13T11:03:05.660Z,14.60
2022-12-13T11:06:06.669Z,15.63
2022-12-13T11:09:03.280Z,14.30
2022-12-13T11:11:59.029Z,13.87
2022-12-13T11:14:57.641Z,13.27
2022-12-13T11:17:55.231Z,13.70
2022-12-13T11:20:56.734Z,12.60
2022-12-13T11:23:48.354Z,13.90
2022-12-13T11:26:43.235Z,14.30
2022-12-13T11:29:53.212Z,15.33
2022-12-13T11:33:20.262Z,12.03
2022-12-13T11:36:18.683Z,13.33
2022-12-13T11:39:24.992Z,13.10
2022-12-13T11:42:24.599Z,13.10
2022-12-13T11:45:22.799Z,14.20
2022-12-13T11:48:25.479Z,14.27
2022-12-13T11:51:26.630Z,15.50
2022-12-13T11:54:25.669Z,15.37
2022-12-13T11:57:27.272Z,14.43
2022-12-13T12:00:45.354Z,15.00
2022-12-13T12:03:44.995Z,15.83
2022-12-13T12:06:44.280Z,15.00
2022-12-13T12:09:38.348Z,15.40
2022-12-13T12:12:34.925Z,15.27
2022-12-13T12:15:31.197Z,15.50
2022-12-13T12:18:20.801Z,14.80
2022-12-13T12:21:49.223Z,16.23
2022-12-13T12:24:48.920Z,15.27
2022-12-13T12:27:50.689Z,15.63
2022-12-13T12:30:57.570Z,16.30
2022-12-13T12:34:01.934Z,15.83
2022-12-13T12:37:03.388Z,14.43
2022-12-13T12:40:09.287Z,15.07
2022-12-13T12:43:15.829Z,14.50
2022-12-13T12:46:23.386Z,16.50
2022-12-13T12:50:11.466Z,14.50
2022-12-13T12:53:15.708Z,13.90
2022-12-13T12:56:25.601Z,13.83
2022-12-13T12:59:26.720Z,13.80
2022-12-13T13:02:23.532Z,13.90
2022-12-13T13:05:24.363Z,13.03
2022-12-13T13:08:22.766Z,15.33
2022-12-13T13:11:24.803Z,14.27
2022-12-13T13:14:34.655Z,13.20
2022-12-13T13:17:50.025Z,12.93
2022-12-13T13:20:43.570Z,12.60
2022-12-13T13:23:40.691Z,11.97
2022-12-13T13:26:36.550Z,11.83
2022-12-13T13:29:43.113Z,11.80
2022-12-13T13:32:42.471Z,12.00
2022-12-13T13:35:50.845Z,11.57
2022-12-13T13:38:53.594Z,11.03
2022-12-13T13:42:12.830Z,12.33
2022-12-13T13:45:25.622Z,11.23
2022-12-13T13:48:27.918Z,12.87
2022-12-13T13:52:24.952Z,12.57
2022-12-13T13:56:02.072Z,10.93
2022-12-13T13:59:33.379Z,12.43
2022-12-13T14:03:12.671Z,12.77
2022-12-13T14:07:00.948Z,12.03
2022-12-13T14:10:27.921Z,10.87
2022-12-13T14:13:56.816Z,12.10
2022-12-13T14:17:37.424Z,11.63
2022-12-13T14:20:58.526Z,12.53
2022-12-13T14:24:04.499Z,13.07
2022-12-13T14:27:40.134Z,13.23
2022-12-13T14:30:32.429Z,12.57
2022-12-13T14:33:28.490Z,14.70
2022-12-13T14:36:35.166Z,12.40
2022-12-13T14:39:28.076Z,13.20
2022-12-13T14:42:31.590Z,12.43
2022-12-13T14:45:27.753Z,12.00
2022-12-13T14:48:28.421Z,13.43
2022-12-13T14:51:35.768Z,13.33
2022-12-13T14:54:30.037Z,17.80
2022-12-13T14:57:22.335Z,14.80
2022-12-13T15:00:27.573Z,13.30
2022-12-13T15:03:30.137Z,13.07
2022-12-13T15:06:22.682Z,12.17
2022-12-13T15:09:15.104Z,11.93
2022-12-13T15:12:14.937Z,14.27
2022-12-13T15:15:37.747Z,12.43
2022-12-13T15:18:31.904Z,13.60
2022-12-13T15:21:25.434Z,12.80
2022-12-13T15:24:17.876Z,13.90
2022-12-13T15:27:13.644Z,13.33
2022-12-13T15:30:04.932Z,11.60
2022-12-13T15:33:07.662Z,13.50
2022-12-13T15:36:10.605Z,12.57
2022-12-13T15:39:05.127Z,13.10
2022-12-13T15:42:00.524Z,14.30
2022-12-13T15:44:56.643Z,14.27
2022-12-13T15:47:49.443Z,15.80
2022-12-13T15:50:47.272Z,16.37
2022-12-13T15:53:42.422Z,15.97
2022-12-13T15:56:36.180Z,16.90
2022-12-13T15:59:29.017Z,19.57
2022-12-13T16:02:23.013Z,17.43
2022-12-13T16:05:25.755Z,17.53
2022-12-13T16:08:27.444Z,18.17
2022-12-13T16:11:31.674Z,18.37
2022-12-13T16:14:40.482Z,18.07
2022-12-13T16:17:43.530Z,16.27
2022-12-13T16:20:33.549Z,16.90
2022-12-13T16:23:27.640Z,15.03
2022-12-13T16:26:26.447Z,15.17
2022-12-13T16:29:19.785Z,16.93
2022-12-13T16:32:13.883Z,18.43
2022-12-13T16:35:07.956Z,16.93
2022-12-13T16:37:59.461Z,17.10
2022-12-13T16:47:24.740Z,17.50
2022-12-13T20:17:20.968Z,17.63
2022-12-13T20:40:11.369Z,18.90
